Time;durP1;ratioP1;P1;durP2;ratioP2;P2;SDS_P1;SDS_P2;PMS_P1;PMS_P2;Temp;Humidity;BMP_temperature;BMP_pressure;BME280_temperature;BME280_humidity;BME280_pressure;Samples;Min_cycle;Max_cycle;Signal;HPM_P1;HPM_P2
2023/01/18 00:00:51;;;;;;;18.00;7.27;;;;;;;;;;5033675;28;20572;-86
2023/01/18 00:03:17;;;;;;;22.60;9.30;;;1.80;99.90;;;;;;5032784;28;20215;-85
2023/01/18 00:05:43;;;;;;;18.33;8.13;;;;;;;;;;5015554;28;20202;-86
2023/01/18 00:08:12;;;;;;;15.43;7.17;;;1.80;99.90;;;;;;5015476;28;20212;-86
2023/01/18 00:10:38;;;;;;;15.17;8.37;;;;;;;;;;5015488;28;20543;-85
2023/01/18 00:13:04;;;;;;;12.93;5.77;;;1.90;99.90;;;;;;5032929;28;20191;-86
2023/01/18 00:15:31;;;;;;;8.10;5.37;;;1.90;99.90;;;;;;5033118;28;20192;-85
2023/01/18 00:17:57;;;;;;;31.20;6.70;;;;;;;;;;5015691;28;20197;-85
2023/01/18 00:20:24;;;;;;;13.63;6.97;;;2.00;99.90;;;;;;5015548;28;20279;-87
2023/01/18 00:22:51;;;;;;;7.87;6.43;;;2.00;99.90;;;;;;5015419;28;20212;-85
2023/01/18 00:25:17;;;;;;;16.70;6.87;;;;;;;;;;5015046;28;20231;-85
2023/01/18 00:27:51;;;;;;;31.90;9.70;;;2.10;99.90;;;;;;5033180;28;20180;-85
2023/01/18 00:30:21;;;;;;;26.13;9.23;;;2.10;99.90;;;;;;5015412;28;20202;-85
2023/01/18 00:32:48;;;;;;;20.57;9.03;;;;;;;;;;5033339;28;20180;-85
2023/01/18 00:35:14;;;;;;;14.00;7.43;;;;;;;;;;5033224;28;20233;-86
2023/01/18 00:37:40;;;;;;;18.30;8.53;;;;;;;;;;5036373;28;20232;-85
2023/01/18 00:40:07;;;;;;;13.27;8.63;;;1.60;99.90;;;;;;5037281;28;20663;-85
2023/01/18 00:45:18;;;;;;;16.10;8.70;;;;;;;;;;5036785;28;20197;-86
2023/01/18 00:47:44;;;;;;;15.13;8.37;;;;;;;;;;5019007;28;20206;-85
2023/01/18 00:50:10;;;;;;;18.10;8.77;;;1.90;99.90;;;;;;5019222;28;20189;-85
2023/01/18 00:52:37;;;;;;;27.63;10.13;;;;;;;;;;5018892;28;20280;-85
2023/01/18 00:55:04;;;;;;;15.47;7.37;;;2.00;99.90;;;;;;5018941;28;20541;-85
2023/01/18 00:57:30;;;;;;;10.27;6.20;;;;;;;;;;5018703;28;20190;-85
2023/01/18 00:59:56;;;;;;;16.43;9.80;;;;;;;;;;5036581;28;20203;-85
2023/01/18 01:02:22;;;;;;;24.53;11.00;;;;;;;;;;5018244;28;20212;-86
2023/01/18 01:07:33;;;;;;;16.37;8.60;;;;;;;;;;5021029;28;20253;-86
2023/01/18 01:09:59;;;;;;;16.53;7.97;;;;;;;;;;5036421;28;20198;-85
2023/01/18 01:26:10;;;;;;;9.27;4.97;;;2.00;99.90;;;;;;5035673;28;20377;-85
2023/01/18 01:28:36;;;;;;;7.70;4.60;;;;;;;;;;5035614;28;20198;-85
2023/01/18 01:31:03;;;;;;;10.53;5.10;;;2.00;99.90;;;;;;5017943;28;20176;-85
2023/01/18 01:33:30;;;;;;;14.17;6.27;;;2.00;99.90;;;;;;5001070;28;20279;-85
2023/01/18 01:36:01;;;;;;;15.33;6.57;;;1.80;99.90;;;;;;5017629;28;20189;-86
2023/01/18 01:38:27;;;;;;;16.77;5.43;;;;;;;;;;5017669;28;20223;-85
2023/01/18 01:41:04;;;;;;;5.43;4.70;;;1.80;99.90;;;;;;5036032;28;20173;-86
2023/01/18 01:43:57;;;;;;;10.83;6.00;;;2.00;99.90;;;;;;5035348;28;20230;-85
2023/01/18 01:46:37;;;;;;;9.90;5.70;;;2.40;99.90;;;;;;5032376;28;20204;-86
2023/01/18 01:49:18;;;;;;;17.13;4.57;;;1.90;99.90;;;;;;5035143;28;20180;-85
2023/01/18 01:51:46;;;;;;;14.23;4.07;;;2.10;99.90;;;;;;5017928;28;20269;-85
2023/01/18 01:54:25;;;;;;;9.20;5.00;;;2.20;99.90;;;;;;5001583;28;20634;-85
2023/01/18 01:56:57;;;;;;;5.83;3.70;;;2.20;99.90;;;;;;5035113;28;20160;-85
2023/01/18 01:59:23;;;;;;;6.73;4.47;;;2.20;99.90;;;;;;5017686;28;20187;-88
2023/01/18 02:01:49;;;;;;;19.03;7.63;;;2.20;99.90;;;;;;5035779;28;20181;-86
2023/01/18 02:04:15;;;;;;;10.90;5.17;;;;;;;;;;5001221;28;20199;-83
2023/01/18 02:06:41;;;;;;;12.80;6.57;;;;;;;;;;5016956;28;20188;-83
2023/01/18 02:09:11;;;;;;;12.23;7.30;;;2.30;99.90;;;;;;5035292;28;20181;-83
2023/01/18 02:11:37;;;;;;;16.33;6.30;;;;;;;;;;5017535;28;20174;-83
2023/01/18 02:14:09;;;;;;;17.80;7.57;;;2.30;99.90;;;;;;5001360;28;20199;-83
2023/01/18 02:17:11;;;;;;;15.23;7.20;;;2.40;99.90;;;;;;5034623;28;20169;-83
2023/01/18 02:20:18;;;;;;;21.43;7.43;;;2.20;99.90;;;;;;5013706;28;20191;-83
2023/01/18 02:22:44;;;;;;;20.40;10.37;;;;;;;;;;4985001;28;20227;-85
2023/01/18 02:25:37;;;;;;;16.77;8.77;;;2.30;99.90;;;;;;4997481;28;20242;-83
2023/01/18 02:28:32;;;;;;;18.13;7.63;;;2.20;99.90;;;;;;5015374;28;20176;-83
2023/01/18 02:31:17;;;;;;;13.63;6.23;;;2.30;99.90;;;;;;5035780;28;20633;-83
2023/01/18 02:33:58;;;;;;;14.20;7.00;;;2.50;99.90;;;;;;5021067;28;20237;-86
2023/01/18 02:37:00;;;;;;;11.13;7.13;;;2.30;99.90;;;;;;5016721;28;20681;-84
2023/01/18 02:39:37;;;;;;;21.00;7.80;;;2.30;99.90;;;;;;5017198;28;20230;-84
2023/01/18 02:48:09;;;;;;;10.00;7.30;;;2.40;99.90;;;;;;5034455;28;20220;-83
2023/01/18 02:50:35;;;;;;;8.33;4.83;;;;;;;;;;5016448;28;20192;-84
2023/01/18 02:53:01;;;;;;;8.63;5.43;;;;;;;;;;5034169;28;20180;-85
2023/01/18 02:55:38;;;;;;;18.00;5.47;;;2.50;99.90;;;;;;5015513;28;20189;-86
2023/01/18 02:58:11;;;;;;;8.53;4.13;;;2.40;99.90;;;;;;5033653;28;20185;-84
2023/01/18 03:00:42;;;;;;;9.03;4.37;;;2.50;99.90;;;;;;5033159;28;20165;-85
2023/01/18 03:03:10;;;;;;;7.37;5.03;;;2.40;99.90;;;;;;5034322;28;20752;-84
2023/01/18 03:05:38;;;;;;;15.73;5.77;;;2.50;99.90;;;;;;5016290;28;20618;-85
2023/01/18 03:08:08;;;;;;;11.20;5.77;;;2.50;99.90;;;;;;5033869;28;20202;-84
2023/01/18 03:10:38;;;;;;;11.07;4.37;;;2.50;99.90;;;;;;5015683;28;20617;-85
2023/01/18 03:13:50;;;;;;;9.27;4.73;;;2.50;99.90;;;;;;5033704;28;20187;-85
2023/01/18 03:16:27;;;;;;;7.97;4.20;;;2.50;99.90;;;;;;5011823;28;20199;-85
2023/01/18 03:19:01;;;;;;;9.10;5.33;;;2.50;99.90;;;;;;5031135;28;20195;-84
2023/01/18 03:21:31;;;;;;;10.77;4.10;;;2.50;99.90;;;;;;5016249;28;20194;-84
2023/01/18 03:24:00;;;;;;;16.70;5.87;;;2.40;99.90;;;;;;5033540;28;20203;-84
2023/01/18 03:26:27;;;;;;;8.40;4.70;;;2.60;99.90;;;;;;5034010;28;20187;-84
2023/01/18 03:34:58;;;;;;;10.50;5.90;;;2.60;99.90;;;;;;5031042;28;20187;-85
2023/01/18 03:37:31;;;;;;;5.40;3.07;;;2.50;99.90;;;;;;5012085;28;20274;-86
2023/01/18 03:40:04;;;;;;;4.97;3.13;;;2.40;99.90;;;;;;5015337;28;20204;-84
2023/01/18 03:42:36;;;;;;;5.33;3.90;;;2.50;99.90;;;;;;5033476;28;20203;-86
2023/01/18 03:45:12;;;;;;;7.00;3.37;;;2.30;99.90;;;;;;5015990;28;20180;-86
2023/01/18 03:47:38;;;;;;;8.90;4.40;;;;;;;;;;5005407;28;20175;-86
2023/01/18 03:50:04;;;;;;;3.43;3.13;;;2.40;99.90;;;;;;5032449;28;20520;-86
2023/01/18 03:52:36;;;;;;;3.97;3.67;;;2.60;99.90;;;;;;4995469;28;20278;-86
2023/01/18 03:55:10;;;;;;;4.00;3.67;;;2.10;99.90;;;;;;5030557;28;20578;-86
2023/01/18 03:57:44;;;;;;;9.53;4.47;;;2.10;99.90;;;;;;5032952;28;20275;-85
2023/01/18 04:00:11;;;;;;;8.37;3.30;;;2.30;99.90;;;;;;5015627;28;20299;-85
2023/01/18 04:02:37;;;;;;;7.47;3.87;;;;;;;;;;5032876;28;20223;-85
2023/01/18 04:05:04;;;;;;;5.17;3.37;;;2.80;99.90;;;;;;4998780;28;20188;-85
2023/01/18 04:07:31;;;;;;;6.13;4.00;;;2.50;99.90;;;;;;4999119;28;20192;-85
2023/01/18 04:09:58;;;;;;;6.43;2.50;;;2.60;99.90;;;;;;5034743;28;20218;-85
2023/01/18 04:12:24;;;;;;;3.87;2.20;;;;;;;;;;5018944;28;20192;-85
2023/01/18 04:14:49;;;;;;;3.40;3.03;;;2.60;99.90;;;;;;5018851;28;20181;-85
2023/01/18 04:17:16;;;;;;;7.40;3.07;;;2.50;99.90;;;;;;5035966;28;20210;-85
2023/01/18 04:19:42;;;;;;;6.80;3.77;;;;;;;;;;5002497;28;20528;-86
2023/01/18 04:22:08;;;;;;;4.47;2.43;;;;;;;;;;5001672;28;20254;-86
2023/01/18 04:24:34;;;;;;;3.43;2.33;;;2.90;99.90;;;;;;5041039;28;20191;-86
2023/01/18 04:27:00;;;;;;;5.17;2.70;;;2.50;99.90;;;;;;5022665;28;20246;-86
2023/01/18 04:29:26;;;;;;;3.93;2.50;;;;;;;;;;5018768;28;20592;-85
2023/01/18 04:31:52;;;;;;;5.87;5.07;;;;;;;;;;5018748;28;20185;-86
2023/01/18 04:34:21;;;;;;;11.53;4.43;;;;;;;;;;5035324;28;20184;-86
2023/01/18 04:36:47;;;;;;;10.17;5.43;;;;;;;;;;5015719;28;20868;-87
2023/01/18 04:39:13;;;;;;;15.47;8.83;;;;;;;;;;5001303;28;20604;-85
2023/01/18 04:41:39;;;;;;;4.00;3.53;;;;;;;;;;5018299;28;20180;-85
2023/01/18 04:44:05;;;;;;;2.97;2.73;;;;;;;;;;5018340;28;20298;-85
2023/01/18 04:46:31;;;;;;;4.03;3.23;;;;;;;;;;5018537;28;20185;-85
2023/01/18 04:48:57;;;;;;;19.47;9.33;;;;;;;;;;4999281;28;20192;-86
2023/01/18 04:51:24;;;;;;;5.70;3.97;;;;;;;;;;5036616;28;20244;-87
2023/01/18 04:53:50;;;;;;;6.40;3.33;;;;;;;;;;5010971;28;20659;-87
2023/01/18 04:56:16;;;;;;;8.43;4.57;;;2.80;99.90;;;;;;5015770;28;20334;-85
2023/01/18 04:58:42;;;;;;;5.73;3.97;;;;;;;;;;5029421;28;20651;-86
2023/01/18 05:01:11;;;;;;;2.87;2.37;;;2.80;99.90;;;;;;5029558;28;20271;-86
2023/01/18 05:03:38;;;;;;;4.50;3.17;;;;;;;;;;4996680;28;20196;-86
2023/01/18 05:06:09;;;;;;;3.17;2.93;;;2.80;99.90;;;;;;5018249;28;20200;-86
2023/01/18 05:08:39;;;;;;;5.93;2.67;;;;;;;;;;5035226;28;20188;-86
2023/01/18 05:11:07;;;;;;;4.70;2.87;;;2.80;99.90;;;;;;5035072;28;20183;-87
2023/01/18 05:13:33;;;;;;;3.13;2.83;;;;;;;;;;5016077;28;20245;-86
2023/01/18 05:16:00;;;;;;;6.03;4.07;;;2.80;99.90;;;;;;4996121;28;20192;-85
2023/01/18 05:18:26;;;;;;;1.53;1.43;;;;;;;;;;5033306;28;20223;-85
2023/01/18 05:20:52;;;;;;;3.60;2.33;;;;;;;;;;5023818;28;20188;-87
2023/01/18 05:23:18;;;;;;;3.30;2.23;;;;;;;;;;5015866;28;20208;-88
2023/01/18 05:25:44;;;;;;;4.93;2.90;;;;;;;;;;5015204;28;20203;-86
2023/01/18 05:28:11;;;;;;;3.90;2.77;;;;;;;;;;5001137;28;20271;-86
2023/01/18 05:30:41;;;;;;;5.33;3.57;;;2.80;99.90;;;;;;5015320;28;20187;-84
2023/01/18 05:33:08;;;;;;;3.90;3.03;;;2.80;99.90;;;;;;5021767;28;20201;-85
2023/01/18 05:35:34;;;;;;;4.07;3.03;;;2.70;99.90;;;;;;5017248;28;20183;-84
2023/01/18 05:38:00;;;;;;;5.87;3.27;;;;;;;;;;5016235;28;20227;-85
2023/01/18 05:40:26;;;;;;;4.17;3.60;;;;;;;;;;5017448;28;20184;-83
2023/01/18 05:42:52;;;;;;;4.97;3.20;;;;;;;;;;5017129;28;20212;-84
2023/01/18 05:45:19;;;;;;;2.73;2.53;;;;;;;;;;5028973;28;20202;-84
2023/01/18 05:47:45;;;;;;;2.30;2.10;;;;;;;;;;5030167;28;20231;-87
2023/01/18 05:50:12;;;;;;;4.03;2.60;;;;;;;;;;5034323;28;20275;-83
2023/01/18 05:52:38;;;;;;;4.00;3.03;;;3.10;99.90;;;;;;5026471;28;20193;-83
2023/01/18 05:55:04;;;;;;;5.60;3.33;;;2.90;99.90;;;;;;5014585;28;20196;-83
2023/01/18 05:57:30;;;;;;;3.73;3.13;;;;;;;;;;5035676;28;20196;-86
2023/01/18 05:59:56;;;;;;;3.33;3.03;;;;;;;;;;5033599;28;20220;-84
2023/01/18 06:02:24;;;;;;;5.13;2.87;;;2.90;99.90;;;;;;5031949;28;20313;-83
2023/01/18 06:04:50;;;;;;;4.03;3.37;;;;;;;;;;5033760;28;20343;-83
2023/01/18 06:07:16;;;;;;;5.00;2.93;;;;;;;;;;5035440;28;20184;-84
2023/01/18 06:09:42;;;;;;;6.53;3.10;;;;;;;;;;5017123;28;20246;-83
2023/01/18 06:12:09;;;;;;;4.47;3.10;;;;;;;;;;5034480;28;20188;-83
2023/01/18 06:14:35;;;;;;;5.80;3.47;;;;;;;;;;5016914;28;20183;-84
2023/01/18 06:17:01;;;;;;;4.10;3.43;;;;;;;;;;5016836;28;20187;-84
2023/01/18 06:19:27;;;;;;;3.20;2.80;;;;;;;;;;5034467;28;20184;-85
2023/01/18 06:21:53;;;;;;;7.83;4.80;;;;;;;;;;5034010;28;20180;-84
2023/01/18 06:24:19;;;;;;;5.87;3.20;;;;;;;;;;5001049;28;20199;-84
2023/01/18 06:26:45;;;;;;;8.57;4.53;;;;;;;;;;5016378;28;20230;-84
2023/01/18 06:29:11;;;;;;;6.77;3.57;;;;;;;;;;5015741;28;20183;-84
2023/01/18 06:31:37;;;;;;;6.73;4.13;;;;;;;;;;5016543;28;20184;-84
2023/01/18 06:34:08;;;;;;;9.80;5.27;;;3.20;99.90;;;;;;5016826;28;20181;-83
2023/01/18 06:36:35;;;;;;;6.00;4.30;;;3.20;99.90;;;;;;5034700;28;20228;-83
2023/01/18 06:39:01;;;;;;;6.23;4.20;;;;;;;;;;5016882;28;20245;-83
2023/01/18 06:41:28;;;;;;;10.27;3.87;;;;;;;;;;5034396;28;20259;-83
2023/01/18 06:43:54;;;;;;;7.80;3.97;;;;;;;;;;5000336;28;20772;-83
2023/01/18 06:46:20;;;;;;;6.43;3.90;;;;;;;;;;5016468;28;20202;-83
2023/01/18 06:48:46;;;;;;;11.20;5.03;;;3.30;99.90;;;;;;4996939;28;20189;-84
2023/01/18 06:51:12;;;;;;;9.37;5.23;;;;;;;;;;4983561;28;20235;-83
2023/01/18 06:53:38;;;;;;;5.90;3.60;;;3.40;99.90;;;;;;4996967;28;20197;-83
2023/01/18 06:56:09;;;;;;;6.43;3.90;;;3.30;99.90;;;;;;4996523;28;20232;-83
2023/01/18 06:58:35;;;;;;;13.30;6.80;;;;;;;;;;4982015;28;20200;-83
2023/01/18 07:01:01;;;;;;;13.67;6.97;;;;;;;;;;4996976;28;20651;-84
2023/01/18 07:03:28;;;;;;;16.83;8.63;;;3.50;99.90;;;;;;5014826;28;20208;-84
2023/01/18 07:05:58;;;;;;;16.07;6.47;;;3.50;99.90;;;;;;5011046;28;20196;-83
2023/01/18 07:08:25;;;;;;;9.63;5.70;;;;;;;;;;5016509;28;20185;-84
2023/01/18 07:10:52;;;;;;;17.27;8.10;;;3.50;99.90;;;;;;5016383;28;20223;-84
2023/01/18 07:13:18;;;;;;;19.83;10.13;;;3.50;99.90;;;;;;5033903;28;20263;-84
2023/01/18 07:15:44;;;;;;;28.43;11.37;;;;;;;;;;4999717;28;20184;-84
2023/01/18 07:18:11;;;;;;;23.17;11.47;;;;;;;;;;5015219;28;20185;-84
2023/01/18 07:20:37;;;;;;;18.33;9.40;;;;;;;;;;5015807;28;20188;-85
2023/01/18 07:23:03;;;;;;;25.90;9.07;;;;;;;;;;5016012;28;20208;-86
2023/01/18 07:25:29;;;;;;;11.77;7.87;;;3.80;99.90;;;;;;5016220;28;20184;-85
2023/01/18 07:27:58;;;;;;;8.13;5.77;;;3.80;99.90;;;;;;5015580;28;20190;-84
2023/01/18 07:30:24;;;;;;;14.57;7.33;;;;;;;;;;4999094;28;20231;-84
2023/01/18 07:32:52;;;;;;;21.53;9.40;;;3.80;99.90;;;;;;5033390;28;20212;-84
2023/01/18 07:35:20;;;;;;;13.70;6.37;;;3.70;99.90;;;;;;5015490;28;20180;-84
2023/01/18 07:37:51;;;;;;;17.93;9.57;;;3.80;99.90;;;;;;5015085;28;20240;-84
2023/01/18 07:40:20;;;;;;;16.70;7.73;;;3.70;99.90;;;;;;5030944;28;20183;-83
2023/01/18 07:42:46;;;;;;;24.50;10.03;;;;;;;;;;4999193;28;20200;-85
2023/01/18 07:45:12;;;;;;;22.10;8.77;;;;;;;;;;5015238;28;20184;-84
2023/01/18 07:47:39;;;;;;;20.87;8.10;;;3.80;99.90;;;;;;4999274;28;20553;-84
2023/01/18 07:50:06;;;;;;;20.13;8.63;;;;;;;;;;5015489;28;20237;-87
2023/01/18 07:52:32;;;;;;;23.77;12.83;;;;;;;;;;5033240;28;20188;-84
2023/01/18 07:54:58;;;;;;;25.20;12.13;;;;;;;;;;5015532;28;20243;-85
2023/01/18 07:57:24;;;;;;;31.43;11.90;;;;;;;;;;5033211;28;20173;-85
2023/01/18 07:59:50;;;;;;;23.90;11.90;;;;;;;;;;4999002;28;20193;-85
2023/01/18 08:02:16;;;;;;;14.43;8.83;;;3.60;99.90;;;;;;5015649;28;20189;-85
2023/01/18 08:04:42;;;;;;;14.63;7.50;;;3.90;99.90;;;;;;5032834;28;20238;-84
2023/01/18 08:07:08;;;;;;;18.23;7.53;;;;;;;;;;5032778;28;20549;-86
2023/01/18 08:09:35;;;;;;;14.70;6.43;;;;;;;;;;5015093;28;20184;-84
2023/01/18 08:12:01;;;;;;;21.03;8.07;;;;;;;;;;5015203;28;20223;-82
2023/01/18 08:14:26;;;;;;;37.33;9.53;;;3.70;99.90;;;;;;4991829;28;20192;-83
2023/01/18 08:16:52;;;;;;;17.97;7.10;;;4.10;99.90;;;;;;5028498;28;20184;-87
2023/01/18 08:19:18;;;;;;;15.00;7.27;;;4.30;99.90;;;;;;5017451;28;20185;-83
2023/01/18 08:21:44;;;;;;;11.73;6.73;;;;;;;;;;5015099;28;20235;-85
2023/01/18 08:24:12;;;;;;;10.67;6.63;;;;;;;;;;4998575;28;20208;-85
2023/01/18 08:26:38;;;;;;;11.70;5.03;;;;;;;;;;5014813;28;20180;-84
2023/01/18 08:29:05;;;;;;;21.53;8.33;;;;;;;;;;5015730;28;20539;-83
2023/01/18 08:31:31;;;;;;;16.43;6.97;;;;;;;;;;5013240;28;20181;-84
2023/01/18 08:33:57;;;;;;;12.57;6.27;;;4.00;99.90;;;;;;5013890;28;20223;-83
2023/01/18 08:36:24;;;;;;;21.43;10.53;;;4.20;99.90;;;;;;4998004;28;20259;-85
2023/01/18 08:38:54;;;;;;;18.80;10.53;;;4.20;99.90;;;;;;5030239;28;20695;-84
2023/01/18 08:41:20;;;;;;;25.07;10.10;;;;;;;;;;5032642;28;20180;-90
2023/01/18 08:43:49;;;;;;;15.07;8.27;;;4.60;99.90;;;;;;5032194;28;20239;-84
2023/01/18 08:46:15;;;;;;;15.63;6.87;;;4.40;99.90;;;;;;5014933;28;20640;-86
2023/01/18 08:48:42;;;;;;;17.67;6.73;;;;;;;;;;5015956;28;20626;-84
2023/01/18 08:51:09;;;;;;;12.47;6.90;;;;;;;;;;5015541;28;20187;-84
2023/01/18 08:53:35;;;;;;;20.10;10.17;;;;;;;;;;5015279;28;20207;-85
2023/01/18 08:56:07;;;;;;;20.77;10.47;;;4.50;99.90;;;;;;4998424;28;20307;-85
2023/01/18 08:58:33;;;;;;;19.20;7.57;;;;;;;;;;5016416;28;20505;-85
2023/01/18 09:00:59;;;;;;;14.60;5.97;;;;;;;;;;5018731;28;20279;-85
2023/01/18 09:03:25;;;;;;;13.57;7.03;;;;;;;;;;5036219;28;20207;-84
2023/01/18 09:05:50;;;;;;;14.50;7.33;;;4.60;99.90;;;;;;5018934;28;20177;-84
2023/01/18 09:08:17;;;;;;;14.80;8.37;;;;;;;;;;5018983;28;20181;-86
2023/01/18 09:10:43;;;;;;;21.27;9.83;;;4.40;99.90;;;;;;5036303;28;20185;-86
2023/01/18 09:13:09;;;;;;;14.47;6.43;;;;;;;;;;5036265;28;20242;-88
2023/01/18 09:15:36;;;;;;;14.53;6.80;;;;;;;;;;5017805;28;20523;-85
2023/01/18 09:18:05;;;;;;;10.90;6.07;;;;;;;;;;5035892;28;20195;-86
2023/01/18 09:20:34;;;;;;;17.50;8.63;;;4.70;99.90;;;;;;5018000;28;20188;-85
2023/01/18 09:23:03;;;;;;;13.80;7.67;;;4.70;99.90;;;;;;5035709;28;20200;-85
2023/01/18 09:25:29;;;;;;;16.13;7.70;;;;;;;;;;5035609;28;20234;-85
2023/01/18 09:27:56;;;;;;;18.20;9.97;;;;;;;;;;4999059;28;20716;-86
2023/01/18 09:30:22;;;;;;;25.20;11.57;;;;;;;;;;5020419;28;20184;-86
2023/01/18 09:32:48;;;;;;;23.30;12.57;;;;;;;;;;5042338;28;20187;-85
2023/01/18 09:35:16;;;;;;;19.67;11.13;;;4.70;99.90;;;;;;5019727;28;20180;-86
2023/01/18 09:37:44;;;;;;;23.40;10.40;;;5.10;99.90;;;;;;5017783;28;20298;-86
2023/01/18 09:40:18;;;;;;;17.53;9.80;;;4.70;99.90;;;;;;5035550;28;20654;-84
2023/01/18 09:42:44;;;;;;;20.60;10.50;;;5.30;99.90;;;;;;5017868;28;20192;-85
2023/01/18 09:45:33;;;;;;;17.23;9.60;;;4.90;99.90;;;;;;4985232;28;20187;-85
2023/01/18 09:48:04;;;;;;;12.47;7.17;;;4.90;99.90;;;;;;5035714;28;20165;-85
2023/01/18 09:50:35;;;;;;;27.37;8.63;;;5.00;99.90;;;;;;5033526;28;20199;-85
2023/01/18 09:53:10;;;;;;;11.53;5.57;;;4.90;99.90;;;;;;5035624;28;20177;-85
2023/01/18 09:56:04;;;;;;;13.03;6.70;;;5.00;99.90;;;;;;5012367;28;20188;-85
2023/01/18 09:59:07;;;;;;;11.60;6.97;;;5.00;99.90;;;;;;5002984;28;20185;-86
2023/01/18 10:01:35;;;;;;;19.83;10.63;;;5.00;99.90;;;;;;5004750;28;20187;-84
2023/01/18 10:04:38;;;;;;;15.23;7.83;;;4.90;99.90;;;;;;5034990;28;20278;-85
2023/01/18 10:07:13;;;;;;;16.60;6.63;;;5.10;99.90;;;;;;4909290;29;20202;-86
2023/01/18 10:09:55;;;;;;;22.03;8.83;;;5.10;99.90;;;;;;5005343;28;20183;-86
2023/01/18 10:12:35;;;;;;;11.60;7.60;;;5.20;99.90;;;;;;5031131;28;20535;-86
2023/01/18 10:15:19;;;;;;;18.13;7.63;;;5.20;99.90;;;;;;5016842;28;20266;-86
2023/01/18 10:17:46;;;;;;;12.73;7.57;;;5.20;99.90;;;;;;5016086;28;20642;-87
2023/01/18 10:20:32;;;;;;;16.73;7.87;;;5.20;99.90;;;;;;5014871;28;20642;-85
2023/01/18 10:23:01;;;;;;;13.67;6.93;;;5.40;99.90;;;;;;5034204;28;20650;-86
2023/01/18 10:25:40;;;;;;;14.67;7.27;;;5.40;99.90;;;;;;5037740;28;20196;-86
2023/01/18 10:28:32;;;;;;;15.97;7.03;;;5.50;99.90;;;;;;5016841;28;20641;-86
2023/01/18 10:31:03;;;;;;;6.97;5.40;;;5.50;99.90;;;;;;4997057;28;20192;-86
2023/01/18 10:33:34;;;;;;;9.23;5.30;;;5.50;99.90;;;;;;4996578;28;20295;-85
2023/01/18 10:36:08;;;;;;;12.67;6.43;;;5.50;99.90;;;;;;5015114;28;20193;-86
2023/01/18 10:38:35;;;;;;;7.23;4.93;;;;;;;;;;5012890;28;20195;-86
2023/01/18 10:41:01;;;;;;;11.77;5.53;;;5.40;99.90;;;;;;5017429;28;20600;-83
2023/01/18 10:43:30;;;;;;;11.03;6.10;;;5.40;99.90;;;;;;5045684;28;20215;-91
2023/01/18 10:45:56;;;;;;;13.27;6.63;;;;;;;;;;5047397;28;20230;-85
2023/01/18 10:48:32;;;;;;;7.63;5.73;;;5.30;99.90;;;;;;5028876;28;20177;-84
2023/01/18 10:51:05;;;;;;;12.37;6.10;;;5.40;99.90;;;;;;5025248;28;20212;-84
2023/01/18 10:53:36;;;;;;;8.43;5.70;;;5.40;99.90;;;;;;5008771;28;20234;-86
2023/01/18 10:56:23;;;;;;;10.27;5.73;;;5.50;99.90;;;;;;5014982;28;20181;-84
2023/01/18 10:58:59;;;;;;;12.97;6.07;;;5.30;99.90;;;;;;5035071;28;20198;-85
2023/01/18 11:01:32;;;;;;;9.80;4.80;;;5.60;99.90;;;;;;5015672;28;20218;-85
2023/01/18 11:04:05;;;;;;;12.47;6.10;;;5.50;99.90;;;;;;5015782;28;20712;-85
2023/01/18 11:06:55;;;;;;;21.73;7.77;;;5.50;99.90;;;;;;5033668;28;20169;-86
2023/01/18 11:09:47;;;;;;;17.77;8.47;;;5.50;99.90;;;;;;5033615;28;20175;-84
2023/01/18 11:12:32;;;;;;;19.83;8.43;;;5.50;99.90;;;;;;5013380;28;20211;-85
2023/01/18 11:15:13;;;;;;;15.97;8.33;;;5.50;99.90;;;;;;5033832;28;20173;-86
2023/01/18 11:17:55;;;;;;;22.83;10.37;;;5.60;99.90;;;;;;5015621;28;20184;-85
2023/01/18 11:20:39;;;;;;;22.67;9.03;;;5.60;99.90;;;;;;5013637;28;20271;-85
2023/01/18 11:23:15;;;;;;;28.30;10.80;;;5.80;99.90;;;;;;5015014;28;20208;-84
2023/01/18 11:25:49;;;;;;;28.67;10.53;;;5.60;99.90;;;;;;5015534;28;20204;-85
2023/01/18 11:28:23;;;;;;;21.10;9.17;;;5.80;99.90;;;;;;5015163;28;20181;-85
2023/01/18 11:30:54;;;;;;;22.27;10.03;;;5.70;99.90;;;;;;5014687;28;20274;-84
2023/01/18 11:33:22;;;;;;;21.43;13.00;;;5.80;99.90;;;;;;5014835;28;20185;-85
2023/01/18 11:36:03;;;;;;;22.07;10.73;;;5.90;99.90;;;;;;5014143;28;20181;-84
2023/01/18 11:38:31;;;;;;;18.97;11.67;;;5.90;99.90;;;;;;5012745;28;20634;-85
2023/01/18 11:41:03;;;;;;;23.70;9.27;;;5.90;99.90;;;;;;5014239;28;20185;-84
2023/01/18 11:43:30;;;;;;;12.23;6.53;;;6.00;99.90;;;;;;4998377;28;20554;-84
2023/01/18 11:46:25;;;;;;;15.50;8.93;;;5.70;99.90;;;;;;4997928;28;20215;-84
2023/01/18 11:49:03;;;;;;;21.40;9.03;;;6.00;99.90;;;;;;5012648;28;20184;-85
2023/01/18 11:52:02;;;;;;;17.83;8.30;;;6.00;99.90;;;;;;5015312;28;20708;-85
2023/01/18 11:54:52;;;;;;;18.73;9.60;;;6.10;99.90;;;;;;4959869;28;20247;-84
2023/01/18 11:57:19;;;;;;;19.43;8.77;;;6.10;99.90;;;;;;5032183;28;20169;-85
2023/01/18 11:59:46;;;;;;;18.57;11.40;;;6.10;99.90;;;;;;4999404;28;20185;-86
2023/01/18 12:02:44;;;;;;;13.87;7.27;;;6.00;99.90;;;;;;5015841;28;20188;-86
2023/01/18 12:05:27;;;;;;;13.33;6.43;;;6.10;99.90;;;;;;5015569;28;20206;-85
2023/01/18 12:08:31;;;;;;;18.20;7.80;;;6.10;99.90;;;;;;5029008;28;20203;-85
2023/01/18 12:11:19;;;;;;;17.43;9.17;;;6.10;99.90;;;;;;4976642;28;20631;-85
2023/01/18 12:14:19;;;;;;;14.57;8.13;;;6.10;99.90;;;;;;5014741;28;20539;-86
2023/01/18 12:16:52;;;;;;;10.30;6.30;;;5.90;99.90;;;;;;5011856;28;20181;-86
2023/01/18 12:19:33;;;;;;;12.80;6.23;;;6.00;99.90;;;;;;5015457;28;20169;-85
2023/01/18 12:22:47;;;;;;;8.40;5.00;;;6.40;99.90;;;;;;5031282;28;20259;-84
2023/01/18 12:25:34;;;;;;;15.20;5.90;;;6.20;99.90;;;;;;4929223;28;20203;-84
2023/01/18 12:28:21;;;;;;;11.50;5.30;;;6.20;99.90;;;;;;5032175;28;20646;-84
2023/01/18 12:30:47;;;;;;;10.67;4.03;;;;;;;;;;5014662;28;20196;-85
2023/01/18 12:33:37;;;;;;;13.13;5.43;;;5.70;99.90;;;;;;5018204;28;20185;-85
2023/01/18 12:36:24;;;;;;;7.77;4.30;;;5.90;99.90;;;;;;5034189;28;20192;-84
2023/01/18 12:38:54;;;;;;;6.67;4.53;;;5.90;99.90;;;;;;5016382;28;20184;-86
2023/01/18 12:41:54;;;;;;;5.77;3.43;;;5.80;99.90;;;;;;5036488;28;20645;-84
2023/01/18 12:44:42;;;;;;;6.73;4.23;;;5.50;99.90;;;;;;5014952;28;20749;-84
2023/01/18 12:47:10;;;;;;;6.73;3.77;;;;;;;;;;5036551;28;20169;-86
2023/01/18 12:49:41;;;;;;;7.20;4.80;;;5.80;99.90;;;;;;5018513;28;20185;-84
2023/01/18 12:52:13;;;;;;;7.97;5.93;;;5.70;99.90;;;;;;5033454;28;20184;-84
2023/01/18 12:54:45;;;;;;;8.40;4.90;;;5.70;99.90;;;;;;5035121;28;20272;-85
2023/01/18 12:57:13;;;;;;;6.73;3.93;;;5.70;99.90;;;;;;5035013;28;20230;-85
2023/01/18 13:00:05;;;;;;;5.03;3.30;;;5.70;99.90;;;;;;4995533;28;20214;-85
2023/01/18 13:02:33;;;;;;;6.03;2.93;;;5.60;99.90;;;;;;5015700;28;20200;-87
2023/01/18 13:05:33;;;;;;;4.80;3.13;;;5.50;99.90;;;;;;5015894;28;20196;-85
2023/01/18 13:08:13;;;;;;;4.17;2.40;;;5.50;99.90;;;;;;5018152;28;20180;-85
2023/01/18 13:10:40;;;;;;;5.53;3.30;;;5.50;99.90;;;;;;5016587;28;20235;-85
2023/01/18 13:13:06;;;;;;;13.70;4.33;;;;;;;;;;5033138;28;20235;-85
2023/01/18 13:15:45;;;;;;;5.93;3.60;;;5.50;99.90;;;;;;5018743;28;20189;-85
2023/01/18 13:18:23;;;;;;;4.23;2.70;;;5.30;99.90;;;;;;5036129;28;20180;-85
2023/01/18 13:20:49;;;;;;;12.70;4.07;;;;;;;;;;5016447;28;20263;-86
2023/01/18 13:23:42;;;;;;;7.63;3.57;;;5.30;99.90;;;;;;5017210;28;20793;-86
2023/01/18 13:26:29;;;;;;;5.30;2.97;;;4.80;99.90;;;;;;4997524;28;20200;-85
2023/01/18 13:29:28;;;;;;;7.20;3.10;;;4.90;99.90;;;;;;5052658;28;20172;-86
2023/01/18 13:31:55;;;;;;;1.33;1.23;;;;;;;;;;5021937;28;20176;-84
2023/01/18 13:34:27;;;;;;;2.30;1.87;;;4.60;99.90;;;;;;5057482;28;20219;-85
2023/01/18 13:36:54;;;;;;;1.77;1.67;;;4.80;99.90;;;;;;5038930;28;20227;-92
2023/01/18 13:39:21;;;;;;;1.90;1.53;;;;;;;;;;5025566;28;20207;-87
2023/01/18 13:42:08;;;;;;;2.77;2.13;;;4.80;99.90;;;;;;5039062;28;20180;-86
2023/01/18 13:44:44;;;;;;;2.50;1.57;;;4.70;99.90;;;;;;5039722;28;20189;-89
2023/01/18 13:47:40;;;;;;;8.33;2.03;;;4.90;99.90;;;;;;5041538;28;20203;-90
2023/01/18 13:50:39;;;;;;;2.50;1.90;;;4.90;99.90;;;;;;5041456;28;20184;-88
2023/01/18 13:53:13;;;;;;;1.83;1.70;;;5.00;99.90;;;;;;5000570;28;20646;-87
2023/01/18 13:56:20;;;;;;;1.00;1.00;;;4.60;99.90;;;;;;5022130;28;20184;-88
2023/01/18 13:58:53;;;;;;;1.57;1.40;;;4.80;99.90;;;;;;5022987;28;20169;-87
2023/01/18 14:01:26;;;;;;;4.00;1.57;;;4.80;99.90;;;;;;5021755;28;20204;-86
2023/01/18 14:03:52;;;;;;;3.17;1.97;;;;;;;;;;5018313;28;20226;-87
2023/01/18 14:06:45;;;;;;;2.93;2.37;;;4.60;99.90;;;;;;5038334;28;20661;-86
2023/01/18 14:09:14;;;;;;;4.40;2.60;;;4.70;99.90;;;;;;5036258;28;20275;-86
2023/01/18 14:11:49;;;;;;;7.20;2.27;;;4.70;99.90;;;;;;5021370;28;20169;-86
2023/01/18 14:14:16;;;;;;;2.60;1.70;;;;;;;;;;5038548;28;20253;-88
2023/01/18 14:17:06;;;;;;;2.67;1.90;;;4.60;99.90;;;;;;5020993;28;20264;-86
2023/01/18 14:19:59;;;;;;;1.57;1.47;;;4.50;99.90;;;;;;5036219;28;20169;-87
2023/01/18 14:23:03;;;;;;;1.67;1.57;;;4.60;99.90;;;;;;5035043;28;20227;-87